Latest Weather Observations for Maningrida Airport

IDD60801

Issued at 5:51 am CST Monday 18 November 2019 (issued every 10 minutes, with the page automatically refreshed every 10 minutes)

About weather observations | Map of weather stations | Latest weather observations for NT | Other Formats
Station Details ID: 014405 Name: MANINGRIDA AIRPORT Lat: -12.06 Lon: 134.23 Height: 28.1 m
Data from the previous 72 hours. | See also: Recent months at Maningrida Airport
Date/Time
CST
Temp
°C
App
Temp
°C
Dew
Point
°C
Rel
Hum
%
Delta-T
°C
Wind Press
QNH
hPa
Press
MSL
hPa
Rain since
9am
mm
Dir  Spd
km/h
Gust
km/h
Spd
kts
Gust
kts
18/05:30am 24.7 29.8 22.6 88 1.4 CALM 0 7 0 4 1010.0 1009.8 0.0
18/05:15am 24.8 29.8 22.5 87 1.5 CALM 0 0 0 0 1010.1 1009.9 0.0
18/05:00am 25.1 30.2 22.6 86 1.7 CALM 0 0 0 0 1010.1 1009.9 0.0
18/04:56am 25.1 30.2 22.6 86 1.7 CALM 0 0 0 0 1010.1 1009.9 0.0
18/04:30am 25.4 30.5 22.7 85 1.8 CALM 0 0 0 0 1009.9 1009.7 0.0
18/04:00am 25.4 30.4 22.5 84 2.0 CALM 0 0 0 0 1010.0 1009.8 0.0
18/03:30am 25.7 30.6 22.4 82 2.2 CALM 0 0 0 0 1009.7 1009.5 0.0
18/03:00am 26.0 30.9 22.3 80 2.5 CALM 0 0 0 0 1009.9 1009.7 0.0
18/02:30am 26.6 31.4 22.2 77 3.0 CALM 0 0 0 0 1010.0 1009.8 0.0
18/02:00am 27.0 30.8 22.4 76 3.1 SSW 6 7 3 4 1010.3 1010.1 0.0
18/01:30am 26.9 30.5 22.3 76 3.1 SSW 7 11 4 6 1010.8 1010.6 0.0
18/01:00am 28.2 32.9 22.7 72 3.7 ESE 2 7 1 4 1011.0 1010.8 0.0
18/12:30am 28.6 32.6 22.8 71 4.0 E 6 7 3 4 1011.6 1011.3 0.0
18/12:00am 28.7 32.6 22.9 71 4.0 ENE 7 11 4 6 1011.7 1011.4 0.0
 
Date/Time
CST
Temp
°C
App
Temp
°C
Dew
Point
°C
Rel
Hum
%
Delta-T
°C
Wind Press
QNH
hPa
Press
MSL
hPa
Rain since
9am
mm
Dir  Spd
km/h
Gust
km/h
Spd
kts
Gust
kts
17/11:30pm 28.6 32.4 22.8 71 4.0 ENE 7 13 4 7 1011.9 1011.6 0.0
17/11:00pm 28.4 32.3 22.9 72 3.8 ENE 7 9 4 5 1012.1 1011.8 0.0
17/10:30pm 28.3 32.3 22.8 72 3.7 ENE 6 9 3 5 1012.1 1011.8 0.0
17/10:00pm 28.2 31.6 22.7 72 3.7 NE 9 13 5 7 1011.9 1011.6 0.0
17/09:30pm 28.2 31.4 22.4 71 3.9 SE 9 13 5 7 1011.8 1011.5 0.0
17/09:00pm 27.9 32.6 21.9 70 4.0 CALM 0 0 0 0 1011.8 1011.5 0.0
17/08:30pm 28.5 31.9 22.0 68 4.4 ESE 7 11 4 6 1011.7 1011.4 0.0
17/08:00pm 28.6 31.6 21.9 67 4.5 NE 9 15 5 8 1011.0 1010.8 0.0
17/07:30pm 28.8 31.2 21.6 65 4.8 ENE 11 17 6 9 1010.8 1010.6 0.0
17/07:00pm 29.0 30.3 21.7 64 4.9 NNE 17 22 9 12 1009.9 1009.7 0.0
17/06:30pm 29.4 30.8 21.1 61 5.5 NNE 15 20 8 11 1009.4 1009.2 0.0
17/06:00pm 29.9 31.0 21.3 60 5.8 NNE 17 24 9 13 1009.3 1009.1 0.0
17/05:30pm 30.6 31.2 21.4 58 6.2 NNE 20 26 11 14 1008.9 1008.7 0.0
17/05:00pm 30.9 31.4 21.1 56 6.6 NNE 20 28 11 15 1008.9 1008.7 0.0
17/04:30pm 31.3 31.0 20.3 52 7.3 NNE 22 30 12 16 1008.8 1008.6 0.0
17/04:00pm 31.8 31.8 20.1 50 7.8 NNE 20 28 11 15 1008.9 1008.7 0.0
17/03:30pm 32.6 32.2 20.2 48 8.3 N 22 32 12 17 1009.1 1008.9 0.0
17/03:00pm 32.8 32.4 21.0 50 7.9 NNE 24 32 13 17 1009.5 1009.3 0.0
17/02:30pm 32.9 32.6 21.1 50 8.0 NNE 24 32 13 17 1009.9 1009.7 0.0
17/02:00pm 33.1 33.7 22.8 54 7.1 N 24 33 13 18 1010.1 1009.9 0.0
17/01:30pm 32.2 32.5 22.9 58 6.4 N 26 33 14 18 1010.5 1010.3 0.0
17/01:00pm 32.6 33.1 22.7 56 6.8 N 24 32 13 17 1010.8 1010.6 0.0
17/12:30pm 32.5 32.7 22.0 54 7.2 N 24 30 13 16 1011.3 1011.0 0.0
17/12:00pm 32.8 33.5 22.3 54 7.2 N 22 30 12 16 1011.6 1011.3 0.0
17/11:30am 33.2 34.6 21.0 48 8.2 N 15 20 8 11 1011.9 1011.6 0.0
17/11:00am 33.3 34.2 20.8 48 8.4 NNW 17 22 9 12 1012.4 1012.1 0.0
17/10:30am 32.6 34.5 20.5 49 8.1 N 11 17 6 9 1012.7 1012.4 0.0
17/10:00am 31.1 33.7 20.4 53 7.1 WNW 7 13 4 7 1012.9 1012.6 0.0
17/09:30am 31.0 33.4 20.9 55 6.8 WNW 9 17 5 9 1013.1 1012.8 0.0
17/09:00am 29.9 33.0 22.1 63 5.3 WSW 9 13 5 7 1013.3 1013.0 0.0
17/08:30am 29.1 31.9 22.3 66 4.6 SSW 11 15 6 8 1013.1 1012.8 0.0
17/08:00am 29.6 33.2 23.1 68 4.5 SSW 9 15 5 8 1012.8 1012.5 0.0
17/07:30am 27.8 31.5 23.2 76 3.1 SSW 9 13 5 7 1012.5 1012.2 0.0
17/07:00am 26.5 30.6 23.0 81 2.4 SSW 6 9 3 5 1012.1 1011.8 0.0
17/06:30am 25.2 29.2 22.7 86 1.7 SSW 6 9 3 5 1011.7 1011.4 0.0
17/06:00am 24.9 28.7 22.4 86 1.7 SSW 6 7 3 4 1011.3 1011.0 0.0
17/05:30am 25.2 28.9 22.5 85 1.8 SW 7 9 4 5 1010.9 1010.7 0.0
17/05:00am 25.1 28.9 22.8 87 1.6 SSW 7 9 4 5 1010.6 1010.4 0.0
17/04:30am 24.6 28.3 22.3 87 1.5 SW 6 7 3 4 1010.5 1010.3 0.0
17/04:00am 25.2 29.2 22.7 86 1.7 SW 6 7 3 4 1010.3 1010.1 0.0
17/03:30am 25.5 29.4 23.0 86 1.7 SW 7 11 4 6 1010.4 1010.2 0.0
17/03:00am 25.4 28.9 22.9 86 1.7 SSW 9 9 5 5 1010.4 1010.2 0.0
17/02:30am 25.7 29.7 22.8 84 2.0 S 6 7 3 4 1010.5 1010.3 0.0
17/02:00am 26.0 31.2 22.9 83 2.1 CALM 0 0 0 0 1010.9 1010.7 0.0
17/01:30am 26.5 31.8 23.0 81 2.4 CALM 0 0 0 0 1011.3 1011.0 0.0
17/01:00am 26.9 32.1 22.9 79 2.7 CALM 0 0 0 0 1011.7 1011.4 0.0
17/12:30am 27.0 32.4 23.3 80 2.5 CALM 0 0 0 0 1012.0 1011.7 0.0
17/12:00am 26.6 31.7 22.7 79 2.6 CALM 0 0 0 0 1012.2 1011.9 0.0
 
Date/Time
CST
Temp
°C
App
Temp
°C
Dew
Point
°C
Rel
Hum
%
Delta-T
°C
Wind Press
QNH
hPa
Press
MSL
hPa
Rain since
9am
mm
Dir  Spd
km/h
Gust
km/h
Spd
kts
Gust
kts
16/11:30pm 28.1 33.4 23.0 74 3.5 CALM 0 0 0 0 1012.3 1012.0 0.0
16/11:00pm 28.3 32.8 23.0 73 3.6 NE 4 7 2 4 1012.6 1012.3 0.0
16/10:30pm 28.4 32.5 22.9 72 3.8 NE 6 7 3 4 1012.4 1012.1 0.0
16/10:00pm 28.5 32.4 23.0 72 3.8 NE 7 11 4 6 1012.0 1011.7 0.0
16/09:30pm 28.5 32.3 22.7 71 3.9 NE 7 11 4 6 1011.5 1011.2 0.0
16/09:00pm 28.7 32.5 22.7 70 4.1 ENE 7 11 4 6 1011.3 1011.0 0.0
16/08:30pm 29.1 31.7 22.6 68 4.4 NNE 13 19 7 10 1010.6 1010.4 0.0
16/08:00pm 29.2 31.5 22.7 68 4.4 N 15 20 8 11 1010.2 1010.0 0.0
16/07:30pm 29.4 31.9 22.4 66 4.8 NNE 13 19 7 10 1009.8 1009.6 0.0
16/07:00pm 29.4 31.5 22.4 66 4.8 NNE 15 22 8 12 1009.5 1009.3 0.0
16/06:30pm 29.7 31.5 21.9 63 5.3 NNE 15 20 8 11 1009.2 1009.0 0.0
16/06:00pm 30.2 31.5 21.6 60 5.8 NNE 17 24 9 13 1009.1 1008.9 0.0
16/05:30pm 30.6 31.4 21.7 59 6.0 N 20 30 11 16 1009.0 1008.8 0.0
16/05:00pm 30.8 30.8 21.0 56 6.6 NNE 22 28 12 15 1008.7 1008.5 0.0
16/04:30pm 31.5 30.9 20.4 51 7.4 NNE 24 30 13 16 1008.7 1008.5 0.0
16/04:00pm 31.9 32.0 21.1 52 7.3 N 22 30 12 16 1008.7 1008.5 0.0
16/03:30pm 32.0 31.7 20.3 50 7.8 NNE 22 30 12 16 1009.0 1008.8 0.0
16/03:00pm 31.9 31.9 21.7 54 6.9 NNE 24 32 13 17 1009.2 1009.0 0.0
16/02:30pm 32.0 31.8 21.2 52 7.3 N 24 32 13 17 1009.5 1009.3 0.0
16/02:00pm 32.8 33.1 22.3 54 7.2 NNE 24 32 13 17 1010.0 1009.8 0.0
16/01:30pm 32.0 31.9 21.5 53 7.1 NNE 24 32 13 17 1010.3 1010.1 0.0
16/01:00pm 32.5 32.4 21.4 52 7.5 NNE 24 33 13 18 1010.7 1010.5 0.0
16/12:30pm 32.7 33.7 22.2 54 7.2 N 20 28 11 15 1011.3 1011.0 0.0
16/12:00pm 33.2 34.3 22.3 52 7.5 N 20 30 11 16 1011.8 1011.5 0.0
16/11:30am 32.1 32.7 21.0 52 7.5 NNE 19 24 10 13 1012.2 1011.9 0.0
16/11:00am 31.9 32.4 20.8 51 7.4 NNE 19 24 10 13 1012.5 1012.2 0.0
16/10:30am 32.3 33.6 20.9 51 7.6 NNW 15 20 8 11 1012.7 1012.4 0.0
16/10:00am 31.9 33.2 20.8 51 7.4 NNW 15 19 8 10 1013.0 1012.7 0.0
16/09:30am 30.9 33.7 20.8 55 6.7 NNW 7 13 4 7 1013.2 1012.9 0.0
16/09:00am 29.9 32.8 21.8 62 5.5 W 9 11 5 6 1013.2 1012.9 0.0
16/08:30am 29.2 32.5 21.9 64 4.9 W 7 13 4 7 1013.1 1012.8 0.0
16/08:00am 28.4 32.3 22.9 72 3.8 SSW 7 13 4 7 1012.9 1012.6 0.0
16/07:30am 27.3 31.4 23.3 79 2.7 SSW 7 11 4 6 1012.4 1012.1 0.0
16/07:00am 25.7 29.8 23.0 85 1.8 S 6 9 3 5 1012.0 1011.7 0.0
16/06:30am 25.2 29.4 23.1 88 1.4 SW 6 11 3 6 1011.5 1011.2 0.0
16/06:00am 24.9 29.0 23.0 89 1.3 SW 6 9 3 5 1010.9 1010.7 0.0
16/05:30am 25.1 28.8 23.2 89 1.3 SW 9 11 5 6 1010.3 1010.1 0.0
16/05:00am 25.1 29.2 23.3 90 1.2 SW 7 11 4 6 1009.9 1009.7 0.0
16/04:30am 24.8 29.1 22.7 88 1.4 NE 4 7 2 4 1009.8 1009.6 0.0
16/04:00am 25.8 30.3 22.9 84 2.0 NE 4 7 2 4 1009.5 1009.3 0.0
16/03:30am 25.6 29.5 22.5 83 2.1 NE 6 7 3 4 1009.4 1009.2 0.0
16/03:00am 26.5 30.6 23.0 81 2.4 NE 6 7 3 4 1009.3 1009.1 0.0
16/02:30am 26.5 30.7 23.2 82 2.3 NE 6 7 3 4 1009.4 1009.2 0.0
16/02:00am 26.1 30.3 23.2 84 2.0 NE 6 7 3 4 1009.6 1009.4 0.0
16/01:30am 26.6 31.0 23.5 83 2.1 NE 6 7 3 4 1010.0 1009.8 0.0
16/01:00am 25.9 31.0 23.4 86 1.7 NE 2 6 1 3 1010.3 1010.1 0.0
16/12:30am 25.8 31.1 23.1 85 1.8 CALM 0 0 0 0 1010.5 1010.3 0.0
16/12:00am 26.0 31.3 23.1 84 2.0 CALM 0 0 0 0 1010.8 1010.6 0.0
 
Date/Time
CST
Temp
°C
App
Temp
°C
Dew
Point
°C
Rel
Hum
%
Delta-T
°C
Wind Press
QNH
hPa
Press
MSL
hPa
Rain since
9am
mm
Dir  Spd
km/h
Gust
km/h
Spd
kts
Gust
kts
15/11:30pm 25.9 31.1 22.8 83 2.1 CALM 0 0 0 0 1011.1 1010.9 0.0
15/11:00pm 26.5 30.6 23.0 81 2.4 NE 6 7 3 4 1011.4 1011.1 0.0
15/10:30pm 26.7 31.9 22.8 79 2.6 CALM 0 0 0 0 1011.4 1011.1 0.0
15/10:00pm 28.1 33.1 23.2 74 3.4 NE 2 6 1 3 1010.9 1010.7 0.0
15/09:30pm 28.3 32.5 23.2 74 3.5 NE 6 6 3 3 1010.5 1010.3 0.0
15/09:00pm 28.3 32.4 23.0 73 3.6 NE 6 7 3 4 1010.1 1009.9 0.0
15/08:30pm 28.5 32.4 23.0 72 3.8 NNE 7 11 4 6 1009.9 1009.7 0.0
15/08:00pm 28.7 32.5 22.7 70 4.1 NNE 7 11 4 6 1009.6 1009.4 0.0
15/07:30pm 28.9 31.9 22.6 69 4.3 NNE 11 15 6 8 1009.1 1008.9 0.0
15/07:00pm 29.1 31.5 22.3 66 4.6 NNE 13 17 7 9 1008.8 1008.6 0.0
15/06:30pm 29.5 31.5 22.2 65 5.0 NNE 15 20 8 11 1008.6 1008.4 0.0
15/06:00pm 29.9 31.5 22.1 63 5.3 NNE 17 24 9 13 1008.3 1008.1 0.0
15/05:30pm 30.5 31.6 21.9 60 5.8 NNE 19 30 10 16 1007.9 1007.7 0.0
15/05:00pm 31.0 32.1 22.3 60 5.9 NNE 20 32 11 17 1007.9 1007.7 0.0
15/04:30pm 31.3 31.8 22.0 57 6.3 NNE 22 32 12 17 1007.9 1007.7 0.0
15/04:00pm 31.9 32.4 22.0 55 6.7 NNE 22 32 12 17 1007.9 1007.7 0.0
15/03:30pm 32.1 32.5 22.5 57 6.6 NNE 24 35 13 19 1008.1 1007.9 0.0
15/03:00pm 31.7 31.6 21.5 54 6.9 NNE 24 33 13 18 1008.3 1008.1 0.0
15/02:30pm 32.5 32.4 22.3 55 7.0 N 26 32 14 17 1008.3 1008.1 0.0
15/02:00pm 32.1 31.9 22.8 58 6.4 NNE 28 39 15 21 1008.3 1008.1 0.0
15/01:30pm 32.3 32.3 23.0 58 6.4 N 28 35 15 19 1008.5 1008.3 0.0
15/01:00pm 32.5 33.4 23.4 58 6.3 N 24 35 13 19 1008.8 1008.6 0.0
15/12:30pm 33.3 34.4 22.4 52 7.5 N 20 28 11 15 1009.1 1008.9 0.0
15/12:00pm 33.2 34.7 22.0 51 7.6 N 17 22 9 12 1009.5 1009.3 0.0
15/11:30am 32.1 33.0 21.6 53 7.1 N 19 24 10 13 1009.9 1009.7 0.0
15/11:00am 32.7 34.5 21.9 53 7.3 NNW 15 20 8 11 1010.1 1009.9 0.0
15/10:30am 32.4 33.9 21.3 52 7.5 NNW 15 19 8 10 1010.6 1010.4 0.0
15/10:00am 31.5 33.6 21.7 56 6.6 NNW 13 19 7 10 1010.7 1010.5 0.0
15/09:30am 31.2 34.2 21.9 57 6.3 NW 9 15 5 8 1011.0 1010.8 0.0
15/09:00am 30.6 33.6 21.9 59 5.9 W 9 13 5 7 1010.9 1010.7 0.0
15/08:30am 29.9 33.5 22.3 63 5.2 W 7 13 4 7 1010.8 1010.6 0.0
15/08:00am 28.8 32.4 23.0 71 4.0 SW 9 13 5 7 1010.5 1010.3 0.0
15/07:30am 27.5 31.6 23.3 78 2.9 SSW 7 9 4 5 1010.2 1010.0 0.0
15/07:00am 26.4 30.6 23.5 84 2.0 SW 7 13 4 7 1010.0 1009.8 0.0
15/06:30am 25.1 29.4 23.3 90 1.2 SW 6 7 3 4 1009.3 1009.1 0.0
15/06:00am 25.0 29.2 23.1 89 1.3 SW 6 7 3 4 1008.9 1008.7 0.0

Other formats

Comma delimited format used in spreadsheet applications
http://www.bom.gov.au/fwo/IDD60801/IDD60801.95142.axf

JavaScript Object Notation format (JSON) in row-major order
http://www.bom.gov.au/fwo/IDD60801/IDD60801.95142.json

Data quality

Most of these data are generated automatically and are frequently updated. Quality checks on data are not normally performed. It is possible for incorrect values to appear. Refer to information at About Latest Weather Observations and please check the disclaimer before using these data.